Weather at Fair Isle Airport

Public forecast

Using degrees Celsius for public forecast. Weather courtesy of forecast.io.

Closest aviation weather report (METAR) to Fair Isle Airport

Closest report is Sumburgh Airport, 23.0 nm (42.6 km) NNE.

2024/04/22 05:20 (retrieved 40 minutes ago)

EGPB 220520Z 32008KT 5000 -DZ BR SCT003 BKN005 09/08 Q1026

Closest aviation forecast (TAF) to Fair Isle Airport

Forecast is more than 6 hours old.

Closest forecast is RAF Northolt, 481.0 nm (890.7 km) S.

2024/04/21 18:39 (retrieved 11 hours ago)

TAF TAF EGWU 211928Z 2118/2212 CNL